Flugplatz Aachen-Merzbrück

Für EDKA sind keine METAR/TAF Berichte vorhanden.
Es werden die Flugwettermeldungen vom Flugplatz Geilenkirchen Airport in 18 km Entfernung angezeigt.

Bericht für ETNG

vom 17.09. um 13:50 UTC

Wind 11 kt aus 300°

Sichtweite 10 km oder mehr

gering bewölkt in 4400 ft

aufgebrochene Bewölkung in 5000 ft

Temperatur 18.0°C

Taupunkt 8.0°C

Luftfeuchtigkeit 52%

Luftdruck 1022 hPa

keine wesentliche Wetteränderung innerhalb den nächsten 2 Stunden zu erwarten

ETNG 171350Z 30011KT 9999 FEW044 BKN050 18/08 Q1022 NOSIG

Prognose für ETNG

vom 17.09. um 00:00 UTC

Zwischen 00:00 UTC und 00:00 UTC

Wind 10 kt aus 320°

Sichtweite 10 km oder mehr

aufgebrochene Bewölkung in 4500 ft

TAF ETNG 171400Z 1715/1806 32010KT 9999 BKN045
Impressum